Time;durP1;ratioP1;P1;durP2;ratioP2;P2;SDS_P1;SDS_P2;PMS_P1;PMS_P2;Temp;Humidity;BMP_temperature;BMP_pressure;BME280_temperature;BME280_humidity;BME280_pressure;Samples;Min_cycle;Max_cycle;Signal;HPM_P1;HPM_P2
2023/06/30 00:00:15;;;;;;;5.70;3.20;;;24.40;58.90;;;;;;222470;1268;25543;-50
2023/06/30 00:05:41;;;;;;;;;;;24.30;59.10;;;;;;222347;1260;22484;-49
2023/06/30 00:10:46;;;;;;;3.00;2.70;;;24.40;59.40;;;;;;222538;1268;22526;-47
2023/06/30 00:15:50;;;;;;;4.10;2.80;;;24.40;59.20;;;;;;222434;1268;22523;-50
2023/06/30 00:20:54;;;;;;;3.30;2.90;;;24.30;59.20;;;;;;222196;1268;24342;-49
2023/06/30 00:25:59;;;;;;;2.80;2.60;;;24.30;59.20;;;;;;222587;1268;24170;-49
2023/06/30 00:31:03;;;;;;;2.80;2.50;;;24.40;59.40;;;;;;222534;1266;23002;-50
2023/06/30 00:36:07;;;;;;;3.00;2.80;;;24.40;59.80;;;;;;222308;1263;24212;-52
2023/06/30 00:41:11;;;;;;;3.00;2.80;;;24.30;59.50;;;;;;222366;1268;22633;-51
2023/06/30 00:46:17;;;;;;;3.20;2.90;;;24.40;59.60;;;;;;222428;1261;22516;-49
2023/06/30 00:51:21;;;;;;;3.10;2.90;;;24.40;59.60;;;;;;222092;1243;24170;-48
2023/06/30 00:56:26;;;;;;;2.90;2.60;;;24.40;59.50;;;;;;227095;1263;22527;-48
2023/06/30 01:01:51;;;;;;;2.80;2.60;;;24.50;59.30;;;;;;230407;1268;22096;-51
2023/06/30 01:07:08;;;;;;;2.60;2.40;;;24.60;59.00;;;;;;228673;1264;24384;-52
2023/06/30 01:12:12;;;;;;;3.20;3.00;;;24.70;58.60;;;;;;222686;1263;22508;-51
2023/06/30 01:17:20;;;;;;;2.80;2.60;;;24.70;59.20;;;;;;222470;1254;22525;-52
2023/06/30 01:22:28;;;;;;;2.90;2.60;;;24.50;59.20;;;;;;222419;1254;23544;-51
2023/06/30 01:27:35;;;;;;;3.30;2.70;;;24.50;59.50;;;;;;222467;1260;22518;-51
2023/06/30 01:32:41;;;;;;;4.70;2.50;;;24.40;59.60;;;;;;222607;1244;24207;-48
2023/06/30 01:37:45;;;;;;;2.50;2.30;;;24.40;59.60;;;;;;221250;1272;22927;-50
2023/06/30 01:42:53;;;;;;;2.80;2.60;;;24.50;59.70;;;;;;221162;1263;22581;-49
2023/06/30 01:47:59;;;;;;;2.50;2.40;;;24.40;59.60;;;;;;221045;1272;22580;-49
2023/06/30 01:53:03;;;;;;;2.60;2.40;;;24.40;59.70;;;;;;220992;1272;22524;-50
2023/06/30 01:58:07;;;;;;;2.90;2.70;;;24.40;60.10;;;;;;221186;1275;22521;-49
2023/06/30 02:03:11;;;;;;;2.60;2.40;;;24.40;60.60;;;;;;222181;1266;22583;-50
2023/06/30 02:08:17;;;;;;;3.20;2.20;;;24.40;59.60;;;;;;222638;1266;22545;-48
2023/06/30 02:13:22;;;;;;;3.10;2.80;;;24.40;59.80;;;;;;222372;1263;315715;-50
2023/06/30 02:18:26;;;;;;;3.60;2.90;;;24.40;59.40;;;;;;222652;1261;24180;-52
2023/06/30 02:23:30;;;;;;;2.60;2.40;;;24.40;60.40;;;;;;222304;1254;23514;-51
2023/06/30 02:28:34;;;;;;;2.70;2.50;;;24.50;60.50;;;;;;222487;1268;22610;-52
2023/06/30 02:33:38;;;;;;;2.80;2.60;;;24.40;60.40;;;;;;222310;1245;25592;-51
2023/06/30 02:38:43;;;;;;;2.20;2.10;;;24.40;60.30;;;;;;222454;1268;24304;-51
2023/06/30 02:43:47;;;;;;;2.50;2.30;;;24.40;60.70;;;;;;222459;1266;22629;-50
2023/06/30 02:48:51;;;;;;;2.50;2.30;;;24.50;60.70;;;;;;222279;1266;23013;-47
2023/06/30 02:53:55;;;;;;;2.10;1.90;;;24.40;60.90;;;;;;222226;1268;22497;-50
2023/06/30 02:59:00;;;;;;;2.70;2.50;;;24.50;60.60;;;;;;230238;1266;22167;-48
2023/06/30 03:04:04;;;;;;;2.80;2.60;;;24.60;60.00;;;;;;230530;1263;22562;-47
2023/06/30 03:09:09;;;;;;;2.70;2.50;;;24.80;59.80;;;;;;229468;1263;22665;-50
2023/06/30 03:14:14;;;;;;;2.70;2.50;;;24.80;59.60;;;;;;222432;1260;22601;-50
2023/06/30 03:19:19;;;;;;;2.40;2.20;;;24.70;59.60;;;;;;222519;1266;24246;-51
2023/06/30 03:24:23;;;;;;;2.60;2.40;;;24.60;60.10;;;;;;222605;1261;22503;-48
2023/06/30 03:29:27;;;;;;;2.60;2.40;;;24.50;59.90;;;;;;222536;1268;25275;-48
2023/06/30 03:34:32;;;;;;;2.90;2.20;;;24.50;60.30;;;;;;222337;1266;22798;-50
2023/06/30 03:39:36;;;;;;;2.70;2.50;;;24.50;60.10;;;;;;230228;1263;22148;-51
2023/06/30 03:44:40;;;;;;;2.50;2.30;;;24.60;59.90;;;;;;226059;1261;25382;-50
2023/06/30 03:49:46;;;;;;;2.30;2.10;;;24.70;59.30;;;;;;222800;1268;22672;-50
2023/06/30 03:54:51;;;;;;;3.20;2.30;;;24.70;59.60;;;;;;222667;1250;22519;-50
2023/06/30 03:59:55;;;;;;;4.10;2.60;;;24.60;60.00;;;;;;222499;1269;22535;-49
2023/06/30 04:04:59;;;;;;;2.80;2.40;;;24.50;60.00;;;;;;222278;1269;22547;-50
2023/06/30 04:10:04;;;;;;;2.50;2.30;;;24.50;60.80;;;;;;222057;1268;22541;-52
2023/06/30 04:15:10;;;;;;;2.30;2.10;;;24.50;60.20;;;;;;222469;1266;25561;-53
2023/06/30 04:20:15;;;;;;;2.50;2.30;;;24.50;60.30;;;;;;222728;1263;25910;-50
2023/06/30 04:25:20;;;;;;;3.00;2.00;;;24.50;60.20;;;;;;222444;1265;22518;-50
2023/06/30 04:30:24;;;;;;;2.20;2.10;;;24.50;60.30;;;;;;222360;1267;22526;-54
2023/06/30 04:35:28;;;;;;;2.30;2.20;;;24.50;60.20;;;;;;222546;1254;24196;-48
2023/06/30 04:40:32;;;;;;;2.30;2.00;;;24.50;60.20;;;;;;222452;1257;22524;-51
2023/06/30 04:45:36;;;;;;;2.30;2.10;;;24.50;60.50;;;;;;222685;1261;22508;-49
2023/06/30 04:50:40;;;;;;;3.30;2.40;;;24.50;60.40;;;;;;222489;1266;22514;-51
2023/06/30 04:55:44;;;;;;;2.20;2.00;;;24.50;60.60;;;;;;222514;1266;22530;-53
2023/06/30 05:00:49;;;;;;;3.20;1.90;;;24.50;60.70;;;;;;222549;1266;22504;-48
2023/06/30 05:05:56;;;;;;;3.00;2.00;;;24.50;60.20;;;;;;222583;1269;22503;-47
2023/06/30 05:11:00;;;;;;;2.40;2.00;;;24.50;60.50;;;;;;222785;1266;25429;-48
2023/06/30 05:16:05;;;;;;;2.10;2.00;;;24.60;60.20;;;;;;222433;1261;25129;-50
2023/06/30 05:21:09;;;;;;;2.30;2.10;;;24.50;60.30;;;;;;222622;1261;22618;-53
2023/06/30 05:26:13;;;;;;;2.50;2.30;;;24.50;60.60;;;;;;222548;1264;24237;-48
2023/06/30 05:31:17;;;;;;;4.10;2.10;;;24.60;60.30;;;;;;222736;1263;22512;-51
2023/06/30 05:36:22;;;;;;;4.50;2.00;;;24.60;60.40;;;;;;222466;1268;24179;-51
2023/06/30 05:41:26;;;;;;;1.90;1.80;;;24.60;60.20;;;;;;222496;1266;23094;-51
2023/06/30 05:46:30;;;;;;;2.00;1.90;;;24.60;60.30;;;;;;222479;1261;24212;-51
2023/06/30 05:51:36;;;;;;;2.20;2.10;;;24.60;60.20;;;;;;222495;1268;24180;-49
2023/06/30 05:56:40;;;;;;;4.10;2.40;;;24.60;60.50;;;;;;222440;1264;22514;-47
2023/06/30 06:01:44;;;;;;;2.20;2.10;;;24.60;60.80;;;;;;222602;1260;24311;-48
2023/06/30 06:06:49;;;;;;;5.00;3.20;;;24.60;60.60;;;;;;222382;1264;22514;-50
2023/06/30 06:11:53;;;;;;;6.80;3.40;;;24.50;61.00;;;;;;222411;1254;24234;-47
2023/06/30 06:16:57;;;;;;;6.00;4.20;;;24.40;61.20;;;;;;222437;1263;22528;-48
2023/06/30 06:22:01;;;;;;;6.20;4.00;;;24.30;61.10;;;;;;222267;1260;22510;-49
2023/06/30 06:27:06;;;;;;;10.50;4.70;;;24.40;61.30;;;;;;222520;1268;25316;-49
2023/06/30 06:32:10;;;;;;;13.10;4.60;;;24.30;61.40;;;;;;222383;1260;25265;-51
2023/06/30 06:37:15;;;;;;;12.50;5.30;;;24.30;61.80;;;;;;222471;1264;22500;-50
2023/06/30 06:42:19;;;;;;;15.10;6.30;;;24.30;61.50;;;;;;222166;1269;22723;-52
2023/06/30 06:48:02;;;;;;;8.60;5.90;;;24.30;61.70;;;;;;222022;1268;24123;-48
2023/06/30 06:53:06;;;;;;;15.40;5.40;;;24.30;61.70;;;;;;222127;1266;22520;-50
2023/06/30 06:58:11;;;;;;;18.80;6.00;;;24.40;61.70;;;;;;222104;1266;22587;-48
2023/06/30 07:03:16;;;;;;;7.40;5.00;;;24.30;61.60;;;;;;224778;1260;22507;-50
2023/06/30 07:08:20;;;;;;;9.30;5.20;;;24.50;61.30;;;;;;230237;1260;23419;-51
2023/06/30 07:13:24;;;;;;;8.10;5.00;;;24.80;60.40;;;;;;230305;1264;22172;-52
2023/06/30 07:18:29;;;;;;;8.70;5.30;;;24.90;60.00;;;;;;228047;1260;22529;-49
2023/06/30 07:23:33;;;;;;;10.30;5.60;;;24.90;60.10;;;;;;222104;1264;24361;-50
2023/06/30 07:28:38;;;;;;;10.50;6.10;;;24.80;59.90;;;;;;222291;1264;24350;-49
2023/06/30 07:33:43;;;;;;;7.10;5.20;;;24.70;59.60;;;;;;222598;1260;24324;-49
2023/06/30 07:38:47;;;;;;;12.10;6.00;;;24.70;60.30;;;;;;222063;1264;22597;-53
2023/06/30 07:43:51;;;;;;;5.70;4.50;;;24.90;60.50;;;;;;222333;1261;22522;-48
2023/06/30 07:48:55;;;;;;;7.60;4.00;;;24.90;60.20;;;;;;222079;1268;22520;-50
2023/06/30 07:54:00;;;;;;;8.00;4.20;;;24.80;60.20;;;;;;222399;1260;22544;-51
2023/06/30 07:59:04;;;;;;;10.90;4.10;;;24.90;59.70;;;;;;221808;1257;24255;-49
2023/06/30 08:04:08;;;;;;;9.10;4.10;;;24.90;60.10;;;;;;222211;1261;25258;-51
2023/06/30 08:09:14;;;;;;;13.70;4.00;;;25.00;60.40;;;;;;222208;1254;22519;-53
2023/06/30 08:14:17;;;;;;;5.80;3.50;;;25.10;60.00;;;;;;222100;1261;24102;-47
2023/06/30 08:19:21;;;;;;;9.00;3.70;;;25.10;59.60;;;;;;222299;1260;24260;-51
2023/06/30 08:24:45;;;;;;;8.70;3.50;;;25.10;59.40;;;;;;222058;1257;22505;-50
2023/06/30 08:29:50;;;;;;;6.40;3.90;;;25.20;59.60;;;;;;222165;1257;25201;-51
2023/06/30 08:34:54;;;;;;;5.20;3.20;;;25.30;59.40;;;;;;222321;1264;22992;-51
2023/06/30 08:39:58;;;;;;;5.00;3.20;;;25.20;59.70;;;;;;223476;1263;22511;-52
2023/06/30 08:45:04;;;;;;;7.30;4.30;;;25.10;60.10;;;;;;222276;1263;22458;-51
2023/06/30 08:50:08;;;;;;;8.20;3.10;;;25.20;60.40;;;;;;222501;1260;22632;-49
2023/06/30 08:55:13;;;;;;;6.30;3.40;;;25.20;60.60;;;;;;222039;1261;22538;-51
2023/06/30 09:00:18;;;;;;;5.40;3.20;;;25.30;60.20;;;;;;222621;1254;23631;-55
2023/06/30 09:05:27;;;;;;;8.40;3.10;;;25.20;60.20;;;;;;222875;1260;25249;-55
2023/06/30 09:10:34;;;;;;;6.20;2.60;;;25.30;60.40;;;;;;222373;1262;25274;-53
2023/06/30 09:15:40;;;;;;;3.70;3.30;;;25.40;59.90;;;;;;222256;1268;25207;-54
2023/06/30 09:20:44;;;;;;;9.60;3.00;;;25.30;61.00;;;;;;222353;1260;22507;-53
2023/06/30 09:25:52;;;;;;;8.20;2.90;;;25.30;60.90;;;;;;222234;1254;22606;-56
2023/06/30 09:31:01;;;;;;;11.50;3.20;;;25.30;61.00;;;;;;222465;1247;25674;-54
2023/06/30 09:36:06;;;;;;;5.70;3.10;;;25.30;60.70;;;;;;222250;1254;24229;-55
2023/06/30 09:41:20;;;;;;;5.40;2.90;;;25.40;60.40;;;;;;222180;1254;25603;-53
2023/06/30 09:46:26;;;;;;;5.00;3.00;;;25.30;60.30;;;;;;222289;1264;24217;-52
2023/06/30 09:51:34;;;;;;;3.20;2.80;;;25.40;60.00;;;;;;222174;1268;22923;-55
2023/06/30 09:56:40;;;;;;;3.00;2.80;;;25.30;60.70;;;;;;222779;1260;22524;-54
2023/06/30 10:01:44;;;;;;;2.90;2.70;;;25.40;60.20;;;;;;222316;1263;23876;-55
2023/06/30 10:06:50;;;;;;;5.20;3.00;;;25.50;59.90;;;;;;222362;1254;25434;-56
2023/06/30 10:11:58;;;;;;;3.00;2.70;;;25.40;60.00;;;;;;222720;1254;22633;-53
2023/06/30 10:17:05;;;;;;;4.90;2.80;;;25.40;60.00;;;;;;222404;1264;24231;-55
2023/06/30 10:22:10;;;;;;;4.20;2.50;;;25.40;60.30;;;;;;222419;1260;25210;-53
2023/06/30 10:27:18;;;;;;;2.70;2.50;;;25.40;60.10;;;;;;222465;1264;24223;-55
2023/06/30 10:32:22;;;;;;;4.10;2.30;;;25.40;60.00;;;;;;222605;1256;22517;-55
2023/06/30 10:37:27;;;;;;;4.80;2.50;;;25.40;60.00;;;;;;222497;1253;24193;-54
2023/06/30 10:42:36;;;;;;;3.60;2.40;;;25.40;59.70;;;;;;222153;1267;24183;-55
2023/06/30 10:47:41;;;;;;;2.70;2.20;;;25.50;59.60;;;;;;222346;1267;25603;-53
2023/06/30 10:52:50;;;;;;;2.50;2.30;;;25.50;59.40;;;;;;222418;1260;22571;-56
2023/06/30 10:57:54;;;;;;;2.60;2.20;;;25.50;59.50;;;;;;222424;1253;25380;-54
2023/06/30 11:02:59;;;;;;;3.10;2.20;;;25.50;59.50;;;;;;222584;1263;22736;-53
2023/06/30 11:08:09;;;;;;;2.50;2.30;;;25.50;59.60;;;;;;222200;1264;22515;-53
2023/06/30 11:13:14;;;;;;;2.40;2.20;;;25.50;59.40;;;;;;222233;1264;22508;-55
2023/06/30 11:18:23;;;;;;;2.20;2.00;;;25.50;59.20;;;;;;222457;1254;22537;-56
2023/06/30 11:23:38;;;;;;;3.10;2.80;;;25.50;59.80;;;;;;222616;1263;22511;-55
2023/06/30 11:28:44;;;;;;;2.30;2.00;;;25.40;61.10;;;;;;222124;1259;24445;-54
2023/06/30 11:33:48;;;;;;;2.80;2.40;;;25.50;60.20;;;;;;222338;1263;22836;-57
2023/06/30 11:38:52;;;;;;;2.50;2.00;;;25.50;59.90;;;;;;222476;1268;22516;-56
2023/06/30 11:43:56;;;;;;;3.00;2.30;;;25.50;60.10;;;;;;222380;1260;23911;-55
2023/06/30 11:49:00;;;;;;;2.90;2.10;;;25.50;59.60;;;;;;222428;1264;24183;-55
2023/06/30 11:54:06;;;;;;;2.20;1.80;;;25.60;59.50;;;;;;222399;1268;24255;-54
2023/06/30 11:59:10;;;;;;;3.50;2.00;;;25.60;59.50;;;;;;222567;1260;22519;-54
2023/06/30 12:04:14;;;;;;;2.10;2.00;;;25.60;59.80;;;;;;222404;1257;22908;-56
2023/06/30 12:09:19;;;;;;;2.00;1.80;;;25.60;59.50;;;;;;222332;1263;22640;-55
2023/06/30 12:14:25;;;;;;;1.90;1.70;;;25.60;59.30;;;;;;222147;1262;24394;-53
2023/06/30 12:19:31;;;;;;;2.10;1.90;;;25.60;59.40;;;;;;222402;1268;25665;-55
2023/06/30 12:24:35;;;;;;;2.20;2.10;;;25.60;59.30;;;;;;222278;1263;23292;-55
2023/06/30 12:29:46;;;;;;;3.90;2.50;;;25.60;59.40;;;;;;222093;1264;24240;-55
2023/06/30 12:34:58;;;;;;;2.30;2.10;;;25.60;59.30;;;;;;222405;1266;22524;-54
2023/06/30 12:40:03;;;;;;;2.90;2.00;;;25.50;59.60;;;;;;222489;1266;26495;-54
2023/06/30 12:45:08;;;;;;;2.10;2.00;;;25.50;59.60;;;;;;222142;1254;24199;-55
2023/06/30 12:50:12;;;;;;;2.80;2.40;;;25.50;59.60;;;;;;222363;1260;22786;-54
2023/06/30 12:55:21;;;;;;;2.20;2.00;;;25.50;59.50;;;;;;222598;1260;22724;-54
2023/06/30 13:00:25;;;;;;;2.00;1.90;;;25.60;59.50;;;;;;222399;1263;22717;-55
2023/06/30 13:05:30;;;;;;;2.30;2.10;;;25.60;59.50;;;;;;222605;1260;22628;-56
2023/06/30 13:10:34;;;;;;;2.40;2.20;;;25.60;59.40;;;;;;222429;1254;24390;-54
2023/06/30 13:15:38;;;;;;;3.80;2.30;;;25.60;59.50;;;;;;222274;1259;24199;-54
2023/06/30 13:20:42;;;;;;;4.10;1.90;;;25.60;59.70;;;;;;222473;1256;22529;-54
2023/06/30 13:25:46;;;;;;;4.10;2.00;;;25.60;59.10;;;;;;222596;1253;22520;-53
2023/06/30 13:30:51;;;;;;;2.50;2.30;;;25.60;60.00;;;;;;222148;1254;24317;-55
2023/06/30 13:35:55;;;;;;;2.60;1.70;;;25.60;59.60;;;;;;222646;1263;24265;-53
2023/06/30 13:40:59;;;;;;;3.10;2.00;;;25.60;59.50;;;;;;222431;1254;22514;-56
2023/06/30 13:46:05;;;;;;;1.70;1.60;;;25.60;59.70;;;;;;222485;1268;22514;-54
2023/06/30 13:51:09;;;;;;;2.30;2.10;;;25.60;59.60;;;;;;222535;1246;24235;-54
2023/06/30 13:56:13;;;;;;;2.40;2.20;;;25.60;59.50;;;;;;222162;1258;24167;-55
2023/06/30 14:01:17;;;;;;;2.80;1.80;;;25.50;59.60;;;;;;222266;1263;22522;-53
2023/06/30 14:06:21;;;;;;;2.60;2.00;;;25.50;59.80;;;;;;222329;1245;25502;-56
2023/06/30 14:11:26;;;;;;;2.60;2.10;;;25.40;60.40;;;;;;222434;1264;24224;-55
2023/06/30 14:16:32;;;;;;;5.90;2.60;;;25.40;62.10;;;;;;222360;1246;348566;-54
2023/06/30 14:21:37;;;;;;;3.70;3.10;;;25.20;64.40;;;;;;222720;1267;22517;-52
2023/06/30 14:26:41;;;;;;;8.20;2.50;;;25.10;65.90;;;;;;222505;1252;22515;-54
2023/06/30 14:31:46;;;;;;;7.10;2.80;;;25.10;65.40;;;;;;222387;1260;22587;-53
2023/06/30 14:36:51;;;;;;;5.10;2.40;;;25.20;65.60;;;;;;222715;1260;24426;-52
2023/06/30 14:41:56;;;;;;;5.50;4.60;;;25.20;64.80;;;;;;222341;1260;24310;-56
2023/06/30 14:47:08;;;;;;;4.70;3.40;;;25.30;64.50;;;;;;222723;1264;22646;-55
2023/06/30 14:52:12;;;;;;;5.00;3.40;;;25.50;63.90;;;;;;222365;1264;24358;-53
2023/06/30 14:57:18;;;;;;;4.40;3.20;;;25.50;63.40;;;;;;222352;1260;24242;-53
2023/06/30 15:02:22;;;;;;;4.60;3.30;;;25.50;63.00;;;;;;222581;1264;22604;-52
2023/06/30 15:07:27;;;;;;;4.10;3.20;;;25.60;63.00;;;;;;222361;1263;24184;-51
2023/06/30 15:12:33;;;;;;;5.10;2.60;;;25.60;62.60;;;;;;222105;1260;23281;-53
2023/06/30 15:17:38;;;;;;;4.10;3.20;;;25.60;62.70;;;;;;222689;1256;25367;-51
2023/06/30 15:22:50;;;;;;;3.50;2.90;;;25.40;64.30;;;;;;222621;1260;25512;-52
2023/06/30 15:27:56;;;;;;;5.40;3.30;;;25.30;65.40;;;;;;222618;1260;22513;-52
2023/06/30 15:33:08;;;;;;;3.90;3.60;;;25.30;66.00;;;;;;222557;1253;22508;-55
2023/06/30 15:38:14;;;;;;;5.80;3.40;;;25.30;66.40;;;;;;222677;1260;23430;-54
2023/06/30 15:43:19;;;;;;;4.80;3.20;;;25.20;67.60;;;;;;222390;1254;25901;-53
2023/06/30 15:48:23;;;;;;;6.50;3.90;;;25.00;68.80;;;;;;222411;1260;22521;-54
2023/06/30 15:53:30;;;;;;;4.40;3.30;;;25.20;68.40;;;;;;222398;1254;22531;-57
2023/06/30 15:58:35;;;;;;;9.10;3.40;;;25.30;67.70;;;;;;222555;1253;24189;-52
2023/06/30 16:03:40;;;;;;;4.50;3.40;;;25.30;67.70;;;;;;222495;1247;22644;-55
2023/06/30 16:08:45;;;;;;;5.20;3.30;;;25.30;67.30;;;;;;222841;1259;22764;-54
2023/06/30 16:13:49;;;;;;;6.10;3.70;;;25.30;68.50;;;;;;222557;1257;23439;-54
2023/06/30 16:18:53;;;;;;;4.80;3.10;;;25.30;69.20;;;;;;222498;1260;22513;-51
2023/06/30 16:23:59;;;;;;;8.70;3.70;;;25.30;69.00;;;;;;222170;1260;22524;-55
2023/06/30 16:29:07;;;;;;;12.50;6.40;;;25.20;70.80;;;;;;222733;1260;24331;-53
2023/06/30 16:34:12;;;;;;;15.00;4.20;;;25.30;70.30;;;;;;222706;1251;22512;-54
2023/06/30 16:39:20;;;;;;;10.20;4.40;;;25.20;70.90;;;;;;222708;1266;24176;-52
2023/06/30 16:44:27;;;;;;;7.10;3.80;;;25.20;71.10;;;;;;222739;1247;24361;-55
2023/06/30 16:49:32;;;;;;;5.90;3.90;;;25.10;71.40;;;;;;222647;1254;24340;-54
2023/06/30 16:54:36;;;;;;;6.50;3.60;;;25.30;71.00;;;;;;222537;1250;24164;-54
2023/06/30 16:59:41;;;;;;;6.10;3.60;;;25.40;70.40;;;;;;222664;1253;26505;-56
2023/06/30 17:04:45;;;;;;;5.10;4.00;;;25.50;70.00;;;;;;222389;1257;22524;-55
2023/06/30 17:09:52;;;;;;;4.70;4.00;;;25.40;69.60;;;;;;222396;1260;23004;-53
2023/06/30 17:14:58;;;;;;;5.10;3.40;;;25.40;69.60;;;;;;222496;1260;26740;-52
2023/06/30 17:20:03;;;;;;;4.70;3.80;;;25.40;68.90;;;;;;222201;1255;25255;-49
2023/06/30 17:25:08;;;;;;;5.20;3.40;;;25.30;68.70;;;;;;230366;1260;22372;-52
2023/06/30 17:30:13;;;;;;;6.80;3.80;;;25.60;68.10;;;;;;228214;1260;25361;-49
2023/06/30 17:35:17;;;;;;;10.30;4.20;;;25.80;67.40;;;;;;222700;1260;24200;-50
2023/06/30 17:40:22;;;;;;;6.80;4.30;;;25.90;68.40;;;;;;222437;1256;24302;-50
2023/06/30 17:45:27;;;;;;;6.90;4.50;;;25.40;67.90;;;;;;222407;1254;22525;-51
2023/06/30 17:50:31;;;;;;;5.00;4.50;;;25.20;68.00;;;;;;222794;1260;23807;-50
2023/06/30 17:55:36;;;;;;;5.70;5.20;;;25.10;69.40;;;;;;222488;1260;22523;-49
2023/06/30 18:00:41;;;;;;;6.30;4.80;;;24.80;70.60;;;;;;222404;1261;22508;-49
2023/06/30 18:05:46;;;;;;;5.50;4.70;;;24.80;70.30;;;;;;222416;1263;24173;-47
2023/06/30 18:10:52;;;;;;;8.70;4.90;;;24.90;70.10;;;;;;222563;1262;24212;-50
2023/06/30 18:16:12;;;;;;;7.70;4.70;;;25.00;70.10;;;;;;222712;1253;23478;-48
2023/06/30 18:21:19;;;;;;;8.50;4.40;;;25.10;70.20;;;;;;222406;1261;22507;-58
2023/06/30 18:26:24;;;;;;;8.50;5.30;;;25.10;70.30;;;;;;222548;1260;24161;-55
2023/06/30 18:31:30;;;;;;;6.80;4.90;;;25.10;70.20;;;;;;222802;1260;25204;-48
2023/06/30 18:36:35;;;;;;;7.30;4.60;;;25.20;69.60;;;;;;222453;1254;22763;-51
2023/06/30 18:41:40;;;;;;;7.30;4.30;;;25.20;69.50;;;;;;222478;1260;22627;-50
2023/06/30 18:46:44;;;;;;;5.20;4.20;;;25.20;69.70;;;;;;222518;1253;26582;-51
2023/06/30 18:51:51;;;;;;;4.80;4.30;;;25.30;69.70;;;;;;222458;1254;22522;-51
2023/06/30 18:56:57;;;;;;;6.50;4.40;;;25.30;69.40;;;;;;222579;1254;24163;-49
2023/06/30 19:02:02;;;;;;;4.50;4.10;;;25.30;69.40;;;;;;222551;1260;22513;-49
2023/06/30 19:07:07;;;;;;;5.90;4.90;;;25.20;68.80;;;;;;222583;1247;25302;-52
2023/06/30 19:12:12;;;;;;;6.00;4.20;;;25.10;68.60;;;;;;222676;1245;22514;-52
2023/06/30 19:17:17;;;;;;;4.80;4.20;;;25.10;68.80;;;;;;222538;1260;22514;-51
2023/06/30 19:22:22;;;;;;;5.60;4.30;;;25.10;68.60;;;;;;222657;1260;25418;-51
2023/06/30 19:27:26;;;;;;;6.10;4.50;;;25.10;68.40;;;;;;222244;1264;22632;-51
2023/06/30 19:32:31;;;;;;;7.10;3.80;;;25.10;68.50;;;;;;222481;1260;22521;-50
2023/06/30 19:37:36;;;;;;;12.40;4.40;;;25.10;68.30;;;;;;222694;1246;24330;-50
2023/06/30 19:42:42;;;;;;;9.30;4.40;;;25.30;68.20;;;;;;222336;1260;22519;-52
2023/06/30 19:47:47;;;;;;;4.50;4.10;;;25.20;68.00;;;;;;222169;1261;24212;-54
2023/06/30 19:52:51;;;;;;;22.00;5.40;;;25.20;68.80;;;;;;226125;1254;26062;-57
2023/06/30 19:57:56;;;;;;;12.90;3.90;;;25.40;68.80;;;;;;222387;1263;22524;-55
2023/06/30 20:03:01;;;;;;;6.10;4.80;;;25.40;68.20;;;;;;222424;1254;22569;-54
2023/06/30 20:08:07;;;;;;;6.10;4.20;;;25.40;67.90;;;;;;222743;1260;22503;-56
2023/06/30 20:13:12;;;;;;;8.00;4.20;;;25.50;67.60;;;;;;222544;1263;24401;-55
2023/06/30 20:18:16;;;;;;;14.50;10.80;;;25.40;68.40;;;;;;222302;1257;24331;-54
2023/06/30 20:23:22;;;;;;;17.70;8.70;;;25.50;67.30;;;;;;222339;1266;22530;-54
2023/06/30 20:28:27;;;;;;;13.20;6.60;;;25.50;68.50;;;;;;222406;1245;22520;-56
2023/06/30 20:33:32;;;;;;;9.70;5.40;;;25.60;69.40;;;;;;222364;1261;22564;-53
2023/06/30 20:38:37;;;;;;;8.20;4.70;;;25.50;69.40;;;;;;222319;1254;22574;-55
2023/06/30 20:43:42;;;;;;;9.80;4.50;;;25.50;69.00;;;;;;221393;1267;22601;-56
2023/06/30 20:48:46;;;;;;;7.80;4.80;;;25.40;69.20;;;;;;221167;1269;22524;-55
2023/06/30 20:53:51;;;;;;;10.10;4.90;;;25.40;69.50;;;;;;221182;1269;27023;-53
2023/06/30 20:58:55;;;;;;;8.70;4.90;;;25.40;69.00;;;;;;221412;1260;22625;-55
2023/06/30 21:04:00;;;;;;;9.00;5.00;;;25.30;68.80;;;;;;222479;1260;23140;-55
2023/06/30 21:09:05;;;;;;;4.90;4.40;;;25.30;68.50;;;;;;222513;1263;22570;-54
2023/06/30 21:14:09;;;;;;;5.50;4.40;;;25.30;68.60;;;;;;224521;1250;25458;-55
2023/06/30 21:19:13;;;;;;;10.30;4.70;;;25.30;68.60;;;;;;222213;1266;25478;-55
2023/06/30 21:24:17;;;;;;;8.90;4.50;;;25.30;68.70;;;;;;222281;1264;26487;-55
2023/06/30 21:29:23;;;;;;;7.70;4.80;;;25.30;69.00;;;;;;222419;1253;25557;-54
2023/06/30 21:34:30;;;;;;;6.10;4.90;;;25.30;68.60;;;;;;221156;1267;22667;-55
2023/06/30 21:39:35;;;;;;;6.10;4.60;;;25.30;68.70;;;;;;221170;1267;24171;-57
2023/06/30 21:44:42;;;;;;;5.30;4.20;;;25.30;68.70;;;;;;221246;1267;25454;-56
2023/06/30 21:49:47;;;;;;;8.10;4.20;;;25.30;68.40;;;;;;221020;1270;24193;-56
2023/06/30 21:54:51;;;;;;;5.20;4.20;;;25.40;68.30;;;;;;220935;1266;22529;-53
2023/06/30 21:59:56;;;;;;;4.10;3.70;;;25.50;68.10;;;;;;221150;1259;22524;-55
2023/06/30 22:05:00;;;;;;;7.70;4.10;;;25.40;68.00;;;;;;220787;1253;22771;-54
2023/06/30 22:10:06;;;;;;;4.40;4.00;;;25.40;67.90;;;;;;221316;1262;22521;-53
2023/06/30 22:15:10;;;;;;;3.70;3.40;;;25.40;68.30;;;;;;222328;1261;22596;-54
2023/06/30 22:20:15;;;;;;;4.00;3.60;;;25.40;69.70;;;;;;222379;1254;24240;-56
2023/06/30 22:25:20;;;;;;;9.70;4.50;;;25.40;68.10;;;;;;222440;1255;22508;-55
2023/06/30 22:30:26;;;;;;;13.00;3.40;;;25.40;68.30;;;;;;222107;1253;22524;-56
2023/06/30 22:35:30;;;;;;;7.90;3.90;;;25.40;68.20;;;;;;222278;1253;24240;-56
2023/06/30 22:40:34;;;;;;;6.20;4.00;;;25.40;68.30;;;;;;222313;1259;22654;-55
2023/06/30 22:45:38;;;;;;;4.40;3.20;;;25.30;68.00;;;;;;222141;1263;22651;-54
2023/06/30 22:50:44;;;;;;;3.60;3.00;;;25.30;68.00;;;;;;222314;1264;22530;-57
2023/06/30 22:55:48;;;;;;;4.90;3.80;;;25.40;67.60;;;;;;222421;1264;22611;-55
2023/06/30 23:00:52;;;;;;;4.30;3.20;;;25.40;67.60;;;;;;222370;1261;23860;-57
2023/06/30 23:05:56;;;;;;;4.80;3.80;;;25.30;67.50;;;;;;222345;1265;24210;-55
2023/06/30 23:11:01;;;;;;;4.10;3.80;;;25.40;67.20;;;;;;222361;1254;24190;-53
2023/06/30 23:16:08;;;;;;;4.10;3.50;;;25.40;67.10;;;;;;222428;1266;22541;-56
2023/06/30 23:21:15;;;;;;;4.20;3.80;;;25.40;67.20;;;;;;221621;1260;22577;-54
2023/06/30 23:26:21;;;;;;;6.00;3.30;;;25.40;67.30;;;;;;221611;1266;25512;-56
2023/06/30 23:31:25;;;;;;;4.50;3.20;;;25.40;66.80;;;;;;221428;1259;25262;-54
2023/06/30 23:36:31;;;;;;;4.60;3.60;;;25.40;66.90;;;;;;221461;1260;24340;-54
2023/06/30 23:41:35;;;;;;;4.10;3.40;;;25.40;66.60;;;;;;221552;1257;25255;-55
2023/06/30 23:46:39;;;;;;;3.80;2.90;;;25.40;66.70;;;;;;221429;1269;22599;-56
2023/06/30 23:51:44;;;;;;;3.60;3.30;;;25.50;66.70;;;;;;222153;1254;22531;-54
2023/06/30 23:56:48;;;;;;;3.10;2.80;;;25.40;67.60;;;;;;222527;1252;22511;-56
